createdAt,value
2019-03-19T00:01:47.281Z,101385.10
2019-03-19T00:04:38.298Z,101390.04
2019-03-19T00:07:15.483Z,101388.83
2019-03-19T00:09:45.744Z,101383.25
2019-03-19T00:12:18.465Z,101380.09
2019-03-19T00:14:50.300Z,101392.85
2019-03-19T00:17:21.102Z,101395.44
2019-03-19T00:19:51.427Z,101397.80
2019-03-19T00:25:03.820Z,101404.48
2019-03-19T00:27:36.174Z,101401.83
2019-03-19T00:33:10.015Z,101410.73
2019-03-19T00:35:46.464Z,101406.42
2019-03-19T00:38:17.391Z,101399.54
2019-03-19T00:41:06.621Z,101400.52
2019-03-19T00:46:19.639Z,101408.16
2019-03-19T00:51:35.095Z,101407.87
2019-03-19T00:56:47.808Z,101413.72
2019-03-19T00:59:20.015Z,101416.87
2019-03-19T01:01:50.235Z,101419.58
2019-03-19T01:04:39.622Z,101431.92
2019-03-19T01:07:10.286Z,101427.61
2019-03-19T01:09:46.760Z,101429.84
2019-03-19T01:12:18.618Z,101440.92
2019-03-19T01:14:48.846Z,101440.08
2019-03-19T01:17:19.143Z,101446.66
2019-03-19T01:19:49.309Z,101443.16
2019-03-19T01:22:20.146Z,101454.60
2019-03-19T01:24:51.416Z,101453.39
2019-03-19T01:27:22.102Z,101459.94
2019-03-19T01:30:11.722Z,101461.72
2019-03-19T01:32:42.342Z,101458.67
2019-03-19T01:35:12.587Z,101463.09
2019-03-19T01:37:42.850Z,101463.55
2019-03-19T01:40:13.320Z,101468.32
2019-03-19T01:42:43.903Z,101470.20
2019-03-19T01:45:14.346Z,101470.25
2019-03-19T01:47:44.710Z,101469.44
2019-03-19T01:50:15.755Z,101470.37
2019-03-19T01:52:48.356Z,101475.65
2019-03-19T01:55:18.665Z,101481.48
2019-03-19T01:57:48.883Z,101485.55
2019-03-19T02:00:19.204Z,101492.22
2019-03-19T02:02:49.733Z,101483.98
2019-03-19T02:05:21.288Z,101489.77
2019-03-19T02:07:51.675Z,101493.84
2019-03-19T02:10:22.047Z,101499.92
2019-03-19T02:12:53.030Z,101500.42
2019-03-19T02:15:23.515Z,101492.45
2019-03-19T02:17:53.795Z,101487.13
2019-03-19T02:20:24.356Z,101491.95
2019-03-19T02:22:54.555Z,101490.63
2019-03-19T02:25:26.800Z,101496.42
2019-03-19T02:27:57.410Z,101503.48
2019-03-19T02:30:28.151Z,101499.67
2019-03-19T02:32:59.837Z,101497.95
2019-03-19T02:35:30.074Z,101506.42
2019-03-19T02:38:00.776Z,101503.38
2019-03-19T02:40:32.582Z,101505.61
2019-03-19T02:43:04.442Z,101512.30
2019-03-19T02:45:34.807Z,101519.86
2019-03-19T02:48:06.796Z,101519.00
2019-03-19T02:50:37.035Z,101525.19
2019-03-19T02:53:09.022Z,101529.61
2019-03-19T02:55:40.931Z,101532.34
2019-03-19T02:58:12.930Z,101535.03
2019-03-19T03:00:43.160Z,101536.39
2019-03-19T03:03:13.349Z,101538.63
2019-03-19T03:05:43.574Z,101539.08
2019-03-19T03:08:14.146Z,101539.08
2019-03-19T03:13:31.892Z,101537.71
2019-03-19T03:19:26.469Z,101543.95
2019-03-19T03:21:56.929Z,101547.04
2019-03-19T03:24:46.484Z,101550.14
2019-03-19T03:27:16.752Z,101546.59
2019-03-19T03:29:46.943Z,101545.72
2019-03-19T03:32:17.535Z,101551.86
2019-03-19T03:34:59.601Z,101553.55
2019-03-19T03:37:42.490Z,101554.86
2019-03-19T03:40:13.482Z,101568.87
2019-03-19T03:45:46.445Z,101573.61
2019-03-19T03:48:16.704Z,101579.34
2019-03-19T03:50:46.902Z,101583.30
2019-03-19T03:53:17.116Z,101583.26
2019-03-19T03:58:28.359Z,101590.72
2019-03-19T04:01:17.607Z,101586.80
2019-03-19T04:03:49.807Z,101593.41
2019-03-19T04:09:39.666Z,101602.27
2019-03-19T04:12:21.641Z,101598.31
2019-03-19T04:15:10.993Z,101607.96
2019-03-19T04:18:01.895Z,101613.15
2019-03-19T04:20:32.118Z,101610.97
2019-03-19T04:23:04.849Z,101607.01
2019-03-19T04:25:47.202Z,101609.65
2019-03-19T04:28:17.532Z,101614.56
2019-03-19T04:30:47.746Z,101619.47
2019-03-19T04:33:18.051Z,101629.16
2019-03-19T04:35:48.364Z,101634.94
2019-03-19T04:41:02.122Z,101634.44
2019-03-19T04:43:32.685Z,101632.48
2019-03-19T04:46:22.108Z,101629.66
2019-03-19T04:49:12.931Z,101622.88
2019-03-19T04:51:43.488Z,101632.73
2019-03-19T04:54:32.824Z,101624.67
2019-03-19T04:57:04.265Z,101631.59
2019-03-19T04:59:34.519Z,101644.70
2019-03-19T05:02:05.131Z,101641.97
2019-03-19T05:04:35.394Z,101644.19
2019-03-19T05:07:05.594Z,101649.98
2019-03-19T05:09:35.814Z,101653.21
2019-03-19T05:14:47.998Z,101656.27
2019-03-19T05:17:19.856Z,101664.59
2019-03-19T05:20:09.435Z,101665.41
2019-03-19T05:22:40.243Z,101674.66
2019-03-19T05:25:12.123Z,101673.34
2019-03-19T05:27:43.958Z,101678.58
2019-03-19T05:30:14.331Z,101680.72
2019-03-19T05:33:03.914Z,101686.39
2019-03-19T05:35:46.147Z,101691.27
2019-03-19T05:38:16.647Z,101697.47
2019-03-19T05:40:47.190Z,101702.70
2019-03-19T05:43:36.500Z,101705.34
2019-03-19T05:46:07.212Z,101707.98
2019-03-19T05:48:37.422Z,101716.82
2019-03-19T05:51:08.496Z,101717.67
2019-03-19T05:53:39.189Z,101710.63
2019-03-19T05:56:11.090Z,101713.71
2019-03-19T05:59:00.643Z,101712.41
2019-03-19T06:01:30.946Z,101712.41
2019-03-19T06:04:13.432Z,101716.77
2019-03-19T06:06:43.702Z,101727.33
2019-03-19T06:09:14.471Z,101726.01
2019-03-19T06:11:45.223Z,101728.56
2019-03-19T06:14:16.084Z,101729.92
2019-03-19T06:16:46.344Z,101733.97
2019-03-19T06:19:17.532Z,101733.47
2019-03-19T06:21:48.879Z,101746.50
2019-03-19T06:24:19.474Z,101747.31
2019-03-19T06:26:49.778Z,101738.48
2019-03-19T06:29:20.128Z,101745.91
2019-03-19T06:31:50.564Z,101744.95
2019-03-19T06:34:21.772Z,101747.55
2019-03-19T06:36:52.643Z,101755.47
2019-03-19T06:39:23.234Z,101762.34
2019-03-19T06:42:12.976Z,101765.75
2019-03-19T06:44:54.853Z,101777.05
2019-03-19T06:50:08.466Z,101772.30
2019-03-19T06:55:41.106Z,101768.30
2019-03-19T06:58:11.592Z,101780.75
2019-03-19T07:00:52.277Z,101786.77
2019-03-19T07:03:24.471Z,101791.39
2019-03-19T07:05:54.667Z,101786.19
2019-03-19T07:08:43.974Z,101793.05
2019-03-19T07:11:14.311Z,101794.78
2019-03-19T07:13:44.949Z,101799.09
2019-03-19T07:16:15.514Z,101793.80
2019-03-19T07:18:46.150Z,101805.47
2019-03-19T07:21:35.550Z,101810.48
2019-03-19T07:24:06.238Z,101809.63
2019-03-19T07:26:55.621Z,101810.44
2019-03-19T07:29:27.674Z,101812.55
2019-03-19T07:34:39.516Z,101824.88
2019-03-19T07:37:09.735Z,101828.39
2019-03-19T07:39:40.318Z,101833.94
2019-03-19T07:42:29.608Z,101839.41
2019-03-19T07:44:59.853Z,101845.92
2019-03-19T07:50:19.319Z,101850.88
2019-03-19T07:52:49.867Z,101847.13
2019-03-19T07:55:20.363Z,101841.95
2019-03-19T07:57:50.984Z,101849.31
2019-03-19T08:00:23.539Z,101860.30
2019-03-19T08:03:15.629Z,101858.58
2019-03-19T08:05:37.996Z,101864.22
2019-03-19T08:08:27.363Z,101868.41
2019-03-19T08:10:57.552Z,101864.84
2019-03-19T08:13:28.122Z,101874.41
2019-03-19T08:15:59.549Z,101874.52
2019-03-19T08:18:29.792Z,101877.62
2019-03-19T08:23:42.616Z,101883.70
2019-03-19T08:26:12.840Z,101886.59
2019-03-19T08:28:43.082Z,101890.52
2019-03-19T08:31:13.446Z,101889.39
2019-03-19T08:33:43.632Z,101894.27
2019-03-19T08:36:13.962Z,101897.25
2019-03-19T08:38:44.381Z,101904.28
2019-03-19T08:41:14.716Z,101904.13
2019-03-19T08:44:04.082Z,101902.88
2019-03-19T08:46:34.566Z,101902.82
2019-03-19T08:49:04.927Z,101915.61
2019-03-19T08:51:35.205Z,101927.81
2019-03-19T08:54:05.402Z,101926.63
2019-03-19T08:56:35.700Z,101932.56
2019-03-19T08:59:06.610Z,101936.34
2019-03-19T09:01:36.968Z,101940.01
2019-03-19T09:04:09.283Z,101944.98
2019-03-19T09:06:39.933Z,101946.25
2019-03-19T09:09:31.144Z,101948.47
2019-03-19T09:12:01.408Z,101956.92
2019-03-19T09:14:31.900Z,101955.98
2019-03-19T09:17:02.122Z,101958.17
2019-03-19T09:19:32.699Z,101958.30
2019-03-19T09:22:03.939Z,101962.59
2019-03-19T09:24:34.625Z,101961.01
2019-03-19T09:27:04.922Z,101961.64
2019-03-19T09:29:35.136Z,101973.39
2019-03-19T09:32:05.437Z,101977.58
2019-03-19T09:34:35.761Z,101987.66
2019-03-19T09:37:05.974Z,101985.63
2019-03-19T09:39:55.347Z,102000.25
2019-03-19T09:42:25.589Z,102000.25
2019-03-19T09:47:44.367Z,102004.72
2019-03-19T09:50:15.367Z,102005.50
2019-03-19T09:52:45.675Z,102009.73
2019-03-19T09:55:16.215Z,102016.37
2019-03-19T09:57:46.838Z,102020.91
2019-03-19T10:00:18.128Z,102013.96
2019-03-19T10:02:48.817Z,102012.95
2019-03-19T10:05:19.164Z,102017.74
2019-03-19T10:07:49.645Z,102018.20
2019-03-19T10:10:20.779Z,102020.25
2019-03-19T10:13:11.519Z,102025.17
2019-03-19T10:15:41.892Z,102030.34
2019-03-19T10:18:12.170Z,102023.50
2019-03-19T10:20:42.877Z,102039.73
2019-03-19T10:23:13.551Z,102039.14
2019-03-19T10:25:43.860Z,102043.20
2019-03-19T10:28:33.230Z,102027.35
2019-03-19T10:31:03.537Z,102027.35
2019-03-19T10:33:52.884Z,102032.91
2019-03-19T10:36:34.661Z,102032.91
2019-03-19T10:39:45.099Z,102038.36
2019-03-19T10:42:15.360Z,102034.23
2019-03-19T10:44:46.200Z,102040.05
2019-03-19T10:47:16.426Z,102044.33
2019-03-19T10:49:46.626Z,102047.52
2019-03-19T10:52:18.489Z,102040.56
2019-03-19T10:54:49.206Z,102044.98
2019-03-19T10:57:19.471Z,102044.37
2019-03-19T11:00:30.842Z,102050.47
2019-03-19T11:03:01.079Z,102046.05
2019-03-19T11:08:20.862Z,102044.86
2019-03-19T11:10:51.188Z,102056.22
2019-03-19T11:13:22.424Z,102057.19
2019-03-19T11:15:52.659Z,102063.98
2019-03-19T11:18:23.173Z,102058.38
2019-03-19T11:20:53.771Z,102068.09
2019-03-19T11:23:44.858Z,102062.05
2019-03-19T11:26:15.291Z,102068.91
2019-03-19T11:28:46.089Z,102077.80
2019-03-19T11:31:37.119Z,102080.92
2019-03-19T11:34:07.420Z,102082.57
2019-03-19T11:36:37.675Z,102078.34
2019-03-19T11:39:10.624Z,102076.67
2019-03-19T11:41:41.014Z,102079.89
2019-03-19T11:44:22.910Z,102090.77
2019-03-19T11:46:53.701Z,102072.59
2019-03-19T11:49:34.558Z,102072.59
2019-03-19T11:52:04.927Z,102086.75
2019-03-19T11:54:35.255Z,102090.97
2019-03-19T11:57:05.844Z,102093.17
2019-03-19T11:59:36.029Z,101928.96
2019-03-19T12:02:06.286Z,102090.34
2019-03-19T12:04:36.861Z,102097.53
2019-03-19T12:07:07.068Z,102094.73
2019-03-19T12:09:56.455Z,102093.77
2019-03-19T12:12:26.998Z,102093.77
2019-03-19T12:15:16.705Z,102095.88
2019-03-19T12:17:48.889Z,102095.88
2019-03-19T12:20:20.758Z,102091.37
2019-03-19T12:23:00.657Z,102090.25
2019-03-19T12:25:31.573Z,102091.85
2019-03-19T12:28:01.845Z,102098.63
2019-03-19T12:30:32.661Z,102102.32
2019-03-19T12:33:03.467Z,102106.44
2019-03-19T12:38:35.959Z,102096.33
2019-03-19T12:41:17.965Z,102099.41
2019-03-19T12:43:59.973Z,101838.12
2019-03-19T12:46:42.506Z,102102.25
2019-03-19T12:49:31.911Z,102110.06
2019-03-19T12:52:02.353Z,102103.33
2019-03-19T12:54:32.684Z,102110.73
2019-03-19T12:57:03.397Z,102110.47
2019-03-19T12:59:33.782Z,102110.09
2019-03-19T13:02:16.100Z,102118.59
2019-03-19T13:04:46.345Z,102115.38
2019-03-19T13:07:16.574Z,102119.88
2019-03-19T13:09:46.919Z,102117.89
2019-03-19T13:12:28.971Z,102132.24
2019-03-19T13:15:00.045Z,102132.24
2019-03-19T13:17:30.582Z,102127.33
2019-03-19T13:20:01.301Z,102133.00
2019-03-19T13:22:31.775Z,102132.74
2019-03-19T13:25:02.061Z,102146.58
2019-03-19T13:27:33.038Z,102141.95
2019-03-19T13:30:03.461Z,102140.80
2019-03-19T13:32:58.961Z,102145.59
2019-03-19T13:35:29.267Z,102145.59
2019-03-19T13:37:59.867Z,102138.87
2019-03-19T13:40:30.710Z,102146.41
2019-03-19T13:43:00.994Z,102145.81
2019-03-19T13:45:32.172Z,102149.13
2019-03-19T13:48:02.444Z,102154.69
2019-03-19T13:50:33.133Z,102153.19
2019-03-19T13:53:04.400Z,102160.04
2019-03-19T13:55:34.639Z,102166.06
2019-03-19T13:58:05.347Z,102171.14
2019-03-19T14:00:35.527Z,102167.27
2019-03-19T14:03:06.733Z,102166.99
2019-03-19T14:05:37.482Z,102172.69
2019-03-19T14:08:19.721Z,102163.50
2019-03-19T14:10:50.090Z,102157.79
2019-03-19T14:13:20.392Z,102162.39
2019-03-19T14:15:50.866Z,102172.00
2019-03-19T14:18:22.213Z,102173.80
2019-03-19T14:20:52.489Z,102172.78
2019-03-19T14:23:22.764Z,102173.66
2019-03-19T14:25:53.339Z,102167.86
2019-03-19T14:28:23.586Z,102177.62
2019-03-19T14:30:54.404Z,102175.94
2019-03-19T14:33:24.674Z,102183.94
2019-03-19T14:35:54.885Z,102176.88
2019-03-19T14:38:25.635Z,102171.75
2019-03-19T14:40:55.883Z,102181.41
2019-03-19T14:43:26.489Z,102187.93
2019-03-19T14:45:56.698Z,102182.48
2019-03-19T14:48:27.227Z,102196.27
2019-03-19T15:17:41.021Z,102199.09
2019-03-19T15:20:16.895Z,102208.30
2019-03-19T15:22:48.212Z,102204.33
2019-03-19T15:25:18.451Z,102202.67
2019-03-19T15:27:48.707Z,102214.05
2019-03-19T15:30:19.270Z,102204.55
2019-03-19T15:32:49.726Z,102210.64
2019-03-19T15:35:20.357Z,102213.90
2019-03-19T15:37:50.591Z,102216.56
2019-03-19T15:40:21.815Z,102211.84
2019-03-19T15:42:52.039Z,102210.88
2019-03-19T15:45:23.474Z,102216.59
2019-03-19T15:47:54.461Z,102219.41
2019-03-19T15:50:25.305Z,102221.84
2019-03-19T15:52:55.893Z,102212.74
2019-03-19T15:55:26.755Z,102220.48
2019-03-19T15:57:57.029Z,102227.98
2019-03-19T16:00:27.335Z,102219.02
2019-03-19T16:02:58.125Z,102219.81
2019-03-19T16:05:29.259Z,102221.67
2019-03-19T16:07:59.460Z,102230.77
2019-03-19T16:10:30.444Z,102236.53
2019-03-19T16:13:00.725Z,102231.56
2019-03-19T16:15:30.987Z,102230.37
2019-03-19T16:18:01.282Z,102242.08
2019-03-19T16:20:31.500Z,102237.28
2019-03-19T16:23:02.007Z,102239.27
2019-03-19T16:25:32.253Z,102246.97
2019-03-19T16:28:02.487Z,102245.61
2019-03-19T16:30:33.119Z,102253.88
2019-03-19T16:33:03.554Z,102248.88
2019-03-19T16:35:34.196Z,102239.19
2019-03-19T16:38:04.940Z,102246.00
2019-03-19T16:40:35.672Z,102251.19
2019-03-19T16:43:06.000Z,102251.28
2019-03-19T16:45:37.753Z,102258.01
2019-03-19T16:48:08.005Z,102261.60
2019-03-19T16:50:38.650Z,102266.06
2019-03-19T16:53:09.560Z,102266.31
2019-03-19T16:55:41.769Z,102266.53
2019-03-19T16:58:12.303Z,102272.08
2019-03-19T17:00:42.643Z,102276.41
2019-03-19T17:03:12.826Z,102274.80
2019-03-19T17:05:43.261Z,102282.78
2019-03-19T17:08:14.200Z,102281.05
2019-03-19T17:10:45.240Z,102289.24
2019-03-19T17:13:15.462Z,102294.41
2019-03-19T17:15:46.003Z,102291.02
2019-03-19T17:18:16.285Z,102305.84
2019-03-19T17:20:47.043Z,102302.36
2019-03-19T17:23:17.270Z,102303.20
2019-03-19T17:25:47.877Z,102310.08
2019-03-19T17:28:22.489Z,102311.49
2019-03-19T17:30:50.612Z,102317.97
2019-03-19T17:33:20.941Z,102318.16
2019-03-19T17:35:51.652Z,102315.32
2019-03-19T17:38:21.896Z,102317.65
2019-03-19T17:40:52.301Z,102325.73
2019-03-19T17:43:23.655Z,102332.05
2019-03-19T17:45:54.336Z,102336.16
2019-03-19T17:48:24.953Z,102332.05
2019-03-19T17:50:56.389Z,102337.98
2019-03-19T17:53:26.782Z,102339.60
2019-03-19T17:55:58.371Z,102340.70
2019-03-19T17:58:29.014Z,102352.02
2019-03-19T18:00:59.395Z,102349.56
2019-03-19T18:03:32.574Z,102355.45
2019-03-19T18:06:03.392Z,102364.03
2019-03-19T18:08:34.862Z,102362.98
2019-03-19T18:11:05.616Z,102367.52
2019-03-19T18:13:36.878Z,102368.96
2019-03-19T18:16:07.359Z,102368.23
2019-03-19T18:18:38.011Z,102374.58
2019-03-19T18:21:09.089Z,102366.34
2019-03-19T18:23:39.926Z,102375.38
2019-03-19T18:26:10.992Z,102391.86
2019-03-19T18:28:41.828Z,102386.16
2019-03-19T18:31:12.436Z,102389.41
2019-03-19T18:33:42.791Z,102391.30
2019-03-19T18:36:13.035Z,102392.72
2019-03-19T18:38:44.072Z,102387.91
2019-03-19T18:41:15.348Z,102392.81
2019-03-19T18:43:46.289Z,102397.77
2019-03-19T18:46:17.529Z,102398.67
2019-03-19T18:48:49.038Z,102401.42
2019-03-19T18:51:19.623Z,102407.64
2019-03-19T18:53:50.142Z,102405.95
2019-03-19T18:56:21.190Z,102411.44
2019-03-19T18:58:51.527Z,102411.08
2019-03-19T19:01:22.330Z,102414.32
2019-03-19T19:03:52.929Z,102417.52
2019-03-19T19:06:23.363Z,102418.02
2019-03-19T19:08:54.720Z,102430.04
2019-03-19T19:11:25.629Z,102432.36
2019-03-19T19:13:56.258Z,102432.41
2019-03-19T19:16:27.532Z,102431.17
2019-03-19T19:18:58.348Z,102428.97
2019-03-19T19:21:28.843Z,102436.97
2019-03-19T19:23:59.153Z,102443.23
2019-03-19T19:26:29.992Z,102443.73
2019-03-19T19:29:00.870Z,102442.48
2019-03-19T19:31:31.294Z,102449.53
2019-03-19T19:34:02.529Z,102447.00
2019-03-19T19:36:33.020Z,102443.98
2019-03-19T19:39:05.278Z,102450.61
2019-03-19T19:41:35.715Z,102457.69
2019-03-19T19:44:06.816Z,102456.41
2019-03-19T19:46:37.148Z,102459.06
2019-03-19T19:49:07.730Z,102461.70
2019-03-19T19:51:38.140Z,102467.46
2019-03-19T19:54:08.796Z,102467.50
2019-03-19T19:56:39.686Z,102468.33
2019-03-19T19:59:12.390Z,102473.67
2019-03-19T20:01:43.211Z,102473.71
2019-03-19T20:04:13.880Z,102468.38
2019-03-19T20:06:44.075Z,102477.11
2019-03-19T20:09:14.519Z,102480.63
2019-03-19T20:11:45.234Z,102482.33
2019-03-19T20:14:15.889Z,102477.89
2019-03-19T20:16:47.121Z,102478.27
2019-03-19T20:19:17.562Z,102478.35
2019-03-19T20:21:48.685Z,102477.44
2019-03-19T20:24:19.429Z,102486.68
2019-03-19T20:26:50.454Z,102480.02
2019-03-19T20:29:20.897Z,102485.73
2019-03-19T20:31:51.469Z,102486.14
2019-03-19T20:34:22.310Z,102490.20
2019-03-19T20:36:52.782Z,102491.64
2019-03-19T20:39:23.929Z,102502.25
2019-03-19T20:41:54.335Z,102499.60
2019-03-19T20:44:25.819Z,102501.88
2019-03-19T20:46:56.061Z,102502.87
2019-03-19T20:49:27.205Z,102509.08
2019-03-19T20:51:57.977Z,102518.77
2019-03-19T20:54:28.539Z,102513.55
2019-03-19T20:56:59.202Z,102518.36
2019-03-19T20:59:29.538Z,102512.56
2019-03-19T21:02:00.154Z,102514.80
2019-03-19T21:04:31.710Z,102511.23
2019-03-19T21:07:02.107Z,102509.98
2019-03-19T21:09:33.405Z,102514.45
2019-03-19T21:12:03.830Z,102516.12
2019-03-19T21:14:34.125Z,102512.59
2019-03-19T21:17:04.987Z,102515.29
2019-03-19T21:19:35.527Z,102512.52
2019-03-19T21:22:08.546Z,102508.58
2019-03-19T21:24:39.453Z,102507.45
2019-03-19T21:27:10.051Z,102501.28
2019-03-19T21:29:40.844Z,102500.68
2019-03-19T21:32:11.226Z,102498.94
2019-03-19T21:34:41.460Z,102497.30
2019-03-19T21:37:12.234Z,102488.94
2019-03-19T21:39:42.484Z,102490.52
2019-03-19T21:42:12.884Z,102494.95
2019-03-19T21:44:43.129Z,102496.58
2019-03-19T21:47:13.504Z,102499.64
2019-03-19T21:49:45.245Z,102497.56
2019-03-19T21:52:16.386Z,102493.93
2019-03-19T21:54:46.633Z,102504.87
2019-03-19T21:57:17.297Z,102513.80
2019-03-19T21:59:47.629Z,102512.58
2019-03-19T22:02:18.421Z,102507.14
2019-03-19T22:04:48.924Z,102499.75
2019-03-19T22:07:19.571Z,102502.23
2019-03-19T22:09:51.178Z,102494.22
2019-03-19T22:12:21.842Z,102500.73
2019-03-19T22:14:52.457Z,102503.77
2019-03-19T22:17:22.726Z,102500.04
2019-03-19T22:19:53.085Z,102511.88
2019-03-19T22:22:23.660Z,102511.29
2019-03-19T22:24:54.394Z,102513.41
2019-03-19T22:27:25.042Z,102514.77
2019-03-19T22:29:55.693Z,102512.02
2019-03-19T22:32:26.371Z,102512.41
2019-03-19T22:34:57.106Z,102506.69
2019-03-19T22:37:28.139Z,102506.20
2019-03-19T22:39:58.651Z,102509.72
2019-03-19T22:42:28.957Z,102510.73
2019-03-19T22:44:59.465Z,102505.34
2019-03-19T22:47:30.181Z,102511.50
2019-03-19T22:50:01.152Z,102515.92
2019-03-19T22:52:31.861Z,102523.55
2019-03-19T22:55:02.597Z,102515.30
2019-03-19T22:57:33.043Z,102507.91
2019-03-19T23:00:05.708Z,102506.29
2019-03-19T23:02:36.181Z,102512.13
2019-03-19T23:05:08.077Z,102518.75
2019-03-19T23:07:38.426Z,102509.55
2019-03-19T23:10:08.683Z,102513.67
2019-03-19T23:12:42.400Z,102512.57
2019-03-19T23:15:14.748Z,102521.50
2019-03-19T23:17:45.968Z,102514.24
2019-03-19T23:20:16.311Z,102513.65
2019-03-19T23:22:46.636Z,102509.86
2019-03-19T23:25:16.996Z,102510.64
2019-03-19T23:27:47.250Z,102514.97
2019-03-19T23:30:17.483Z,102513.28
2019-03-19T23:32:48.167Z,102505.44
2019-03-19T23:35:19.180Z,102502.79
2019-03-19T23:37:50.033Z,102500.27
2019-03-19T23:40:20.322Z,102497.28
2019-03-19T23:42:50.855Z,102500.41
2019-03-19T23:45:21.088Z,102504.84
2019-03-19T23:47:51.592Z,102507.91
2019-03-19T23:50:22.042Z,102506.98
2019-03-19T23:52:52.339Z,102503.11
2019-03-19T23:55:22.888Z,102502.62
2019-03-19T23:57:53.113Z,102498.69
